createdAt,value
2019-03-15T00:04:20.379Z,13.27
2019-03-15T00:09:45.786Z,12.77
2019-03-15T00:15:09.644Z,15.33
2019-03-15T00:26:22.198Z,7.10
2019-03-15T00:31:47.890Z,11.70
2019-03-15T00:37:12.299Z,11.70
2019-03-15T00:42:37.139Z,10.07
2019-03-15T00:48:01.507Z,8.70
2019-03-15T00:53:25.767Z,12.03
2019-03-15T00:58:49.200Z,17.50
2019-03-15T01:04:14.110Z,14.10
2019-03-15T01:09:37.978Z,11.27
2019-03-15T01:15:02.553Z,8.53
2019-03-15T01:20:27.057Z,20.43
2019-03-15T01:25:51.160Z,15.10
2019-03-15T01:31:14.742Z,15.03
2019-03-15T01:36:38.644Z,17.60
2019-03-15T01:42:03.119Z,12.67
2019-03-15T01:47:26.905Z,21.37
2019-03-15T01:52:50.686Z,11.70
2019-03-15T01:58:15.346Z,12.57
2019-03-15T02:03:39.559Z,13.80
2019-03-15T02:09:05.357Z,19.00
2019-03-15T02:14:29.409Z,13.73
2019-03-15T02:19:54.130Z,17.83
2019-03-15T02:25:18.727Z,13.77
2019-03-15T02:30:42.606Z,14.33
2019-03-15T02:36:07.612Z,15.50
2019-03-15T02:41:32.379Z,15.87
2019-03-15T02:46:57.595Z,19.23
2019-03-15T02:52:22.025Z,10.07
2019-03-15T02:57:46.719Z,18.53
2019-03-15T03:03:11.217Z,10.83
2019-03-15T03:08:35.134Z,9.70
2019-03-15T03:13:59.133Z,13.37
2019-03-15T03:19:24.463Z,15.00
2019-03-15T03:24:48.651Z,14.10
2019-03-15T03:30:16.649Z,15.60
2019-03-15T03:35:39.791Z,10.30
2019-03-15T03:41:04.551Z,9.60
2019-03-15T03:46:28.855Z,9.93
2019-03-15T03:51:54.510Z,13.13
2019-03-15T03:57:18.480Z,16.97
2019-03-15T04:02:42.431Z,12.73
2019-03-15T04:08:07.592Z,16.43
2019-03-15T04:13:32.366Z,13.20
2019-03-15T04:18:56.244Z,17.10
2019-03-15T04:24:20.939Z,16.63
2019-03-15T04:29:45.594Z,12.93
2019-03-15T04:35:09.688Z,15.53
2019-03-15T04:40:33.529Z,13.33
2019-03-15T04:45:57.950Z,11.93
2019-03-15T04:51:22.232Z,12.57
2019-03-15T04:56:46.080Z,11.20
2019-03-15T05:02:09.800Z,15.50
2019-03-15T05:07:33.326Z,13.87
2019-03-15T05:12:57.366Z,12.83
2019-03-15T05:18:21.950Z,14.90
2019-03-15T05:23:46.650Z,13.83
2019-03-15T05:29:10.436Z,16.97
2019-03-15T05:34:34.368Z,20.27
2019-03-15T05:39:58.983Z,15.13
2019-03-15T05:45:23.998Z,11.00
2019-03-15T05:50:48.627Z,15.17
2019-03-15T05:56:12.312Z,11.40
2019-03-15T06:01:36.467Z,13.07
2019-03-15T06:07:00.109Z,12.80
2019-03-15T06:12:24.531Z,16.87
2019-03-15T06:17:48.216Z,13.97
2019-03-15T06:23:12.266Z,16.53
2019-03-15T06:28:36.476Z,26.33
2019-03-15T06:34:01.208Z,22.40
2019-03-15T06:39:24.794Z,11.43
2019-03-15T06:44:58.049Z,20.00
2019-03-15T06:50:14.728Z,19.43
2019-03-15T06:55:38.529Z,16.50
2019-03-15T07:01:02.930Z,16.53
2019-03-15T07:06:27.115Z,18.67
2019-03-15T07:11:50.943Z,23.33
2019-03-15T07:17:15.735Z,17.07
2019-03-15T07:22:39.351Z,17.87
2019-03-15T07:28:03.267Z,20.17
2019-03-15T07:33:27.900Z,17.70
2019-03-15T07:38:52.675Z,17.57
2019-03-15T07:44:17.263Z,15.30
2019-03-15T07:49:40.965Z,15.03
2019-03-15T07:55:06.174Z,15.60
2019-03-15T08:00:29.915Z,15.87
2019-03-15T08:05:53.794Z,16.03
2019-03-15T08:11:18.690Z,11.73
2019-03-15T08:16:43.597Z,13.63
2019-03-15T08:22:07.988Z,9.93
2019-03-15T08:27:31.785Z,16.13
2019-03-15T08:33:09.253Z,16.50
2019-03-15T08:38:21.879Z,15.93
2019-03-15T08:43:46.175Z,14.30
2019-03-15T08:49:10.854Z,16.27
2019-03-15T08:54:35.706Z,18.70
2019-03-15T09:00:00.644Z,16.17
2019-03-15T09:05:26.071Z,19.97
2019-03-15T09:10:50.028Z,17.57
2019-03-15T09:16:13.793Z,19.57
2019-03-15T09:21:38.785Z,20.77
2019-03-15T09:27:02.884Z,22.45
2019-03-15T09:32:27.394Z,14.73
2019-03-15T09:37:52.300Z,14.97
2019-03-15T09:43:16.304Z,23.13
2019-03-15T09:48:43.632Z,18.83
2019-03-15T09:54:06.875Z,22.67
2019-03-15T09:59:30.776Z,18.50
2019-03-15T10:04:55.518Z,17.17
2019-03-15T10:10:20.516Z,20.20
2019-03-15T10:15:44.690Z,22.93
2019-03-15T10:21:09.440Z,21.07
2019-03-15T10:26:34.182Z,14.77
2019-03-15T10:31:58.935Z,21.63
2019-03-15T10:37:22.662Z,17.40
2019-03-15T10:42:46.214Z,17.60
2019-03-15T10:48:09.936Z,17.47
2019-03-15T10:53:33.943Z,17.27
2019-03-15T10:58:58.481Z,23.47
2019-03-15T11:04:23.252Z,17.17
2019-03-15T11:09:48.580Z,15.90
2019-03-15T11:15:12.322Z,20.72
2019-03-15T11:20:37.258Z,17.77
2019-03-15T11:26:13.083Z,16.73
2019-03-15T11:31:28.103Z,21.27
2019-03-15T11:36:58.146Z,15.17
2019-03-15T11:42:18.050Z,17.73
2019-03-15T11:48:01.260Z,12.83
2019-03-15T11:53:08.115Z,11.97
2019-03-15T11:58:32.036Z,17.40
2019-03-15T12:03:56.463Z,15.40
2019-03-15T12:09:22.131Z,17.13
2019-03-15T12:14:47.056Z,16.93
2019-03-15T12:20:11.621Z,14.90
2019-03-15T12:25:37.288Z,15.17
2019-03-15T12:31:01.559Z,17.83
2019-03-15T12:36:26.051Z,15.80
2019-03-15T12:41:50.916Z,14.57
2019-03-15T12:47:14.727Z,12.03
2019-03-15T12:52:47.291Z,12.93
2019-03-15T12:58:05.485Z,12.03
2019-03-15T13:03:29.670Z,11.10
2019-03-15T13:08:53.749Z,12.60
2019-03-15T13:14:17.605Z,12.50
2019-03-15T13:19:54.159Z,12.17
2019-03-15T13:25:08.156Z,13.17
2019-03-15T13:30:32.397Z,11.73
2019-03-15T13:35:57.326Z,10.37
2019-03-15T13:41:21.600Z,5.07
2019-03-15T13:46:46.261Z,8.77
2019-03-15T13:52:11.145Z,7.63
2019-03-15T13:57:35.703Z,9.53
2019-03-15T14:03:00.345Z,10.80
2019-03-15T14:08:25.786Z,8.33
2019-03-15T14:13:50.123Z,12.57
2019-03-15T14:19:14.811Z,14.93
2019-03-15T14:24:39.412Z,13.73
2019-03-15T14:30:03.344Z,16.50
2019-03-15T14:35:28.393Z,14.07
2019-03-15T14:40:52.361Z,13.80
2019-03-15T14:46:17.244Z,19.33
2019-03-15T14:51:40.851Z,14.87
2019-03-15T14:57:04.844Z,12.40
2019-03-15T15:02:28.551Z,17.50
2019-03-15T15:07:52.862Z,17.77
2019-03-15T15:13:17.692Z,13.30
2019-03-15T15:18:42.096Z,14.27
2019-03-15T15:24:07.155Z,13.47
2019-03-15T15:29:30.879Z,15.63
2019-03-15T15:34:54.790Z,15.83
2019-03-15T15:40:19.287Z,8.87
2019-03-15T15:45:44.077Z,10.53
2019-03-15T15:51:08.971Z,8.47
2019-03-15T15:56:32.835Z,8.67
2019-03-15T16:01:57.066Z,6.00
2019-03-15T16:07:21.804Z,8.43
2019-03-15T16:12:45.685Z,5.17
2019-03-15T16:18:09.564Z,8.87
2019-03-15T16:23:34.222Z,5.63
2019-03-15T16:28:58.889Z,7.73
2019-03-15T16:34:22.693Z,6.03
2019-03-15T16:39:47.040Z,4.10
2019-03-15T16:45:15.255Z,5.83
2019-03-15T16:50:38.948Z,5.37
2019-03-15T16:56:03.772Z,6.60
2019-03-15T17:01:28.704Z,11.73
2019-03-15T17:06:52.503Z,10.33
2019-03-15T17:12:16.867Z,5.57
2019-03-15T17:17:41.289Z,8.20
2019-03-15T17:23:05.879Z,8.30
2019-03-15T17:28:30.409Z,7.03
2019-03-15T17:33:54.270Z,5.73
2019-03-15T17:39:18.057Z,8.23
2019-03-15T17:44:42.767Z,4.03
2019-03-15T17:50:09.065Z,4.83
2019-03-15T17:55:33.488Z,5.77
2019-03-15T18:00:58.282Z,7.70
2019-03-15T18:06:23.121Z,8.53
2019-03-15T18:11:47.229Z,4.80
2019-03-15T18:17:11.018Z,5.77
2019-03-15T18:22:35.777Z,7.00
2019-03-15T18:27:59.646Z,5.57
2019-03-15T18:33:24.411Z,7.63
2019-03-15T18:38:48.053Z,8.30
2019-03-15T18:44:12.760Z,3.87
2019-03-15T18:49:37.319Z,6.33
2019-03-15T18:55:02.042Z,5.30
2019-03-15T19:00:25.776Z,7.77
2019-03-15T19:05:50.459Z,4.43
2019-03-15T19:11:16.142Z,5.83
2019-03-15T19:16:41.016Z,6.07
2019-03-15T19:22:06.540Z,12.63
2019-03-15T19:27:30.175Z,5.23
2019-03-15T19:32:54.235Z,6.30
2019-03-15T19:38:18.511Z,5.90
2019-03-15T19:43:43.333Z,4.33
2019-03-15T19:49:06.889Z,9.70
2019-03-15T19:54:32.139Z,8.83
2019-03-15T20:00:07.069Z,6.30
2019-03-15T20:05:22.223Z,6.70
2019-03-15T20:10:47.065Z,7.20
2019-03-15T20:16:11.466Z,13.30
2019-03-15T20:21:36.290Z,10.70
2019-03-15T20:27:19.727Z,9.20
2019-03-15T20:32:44.165Z,10.20
2019-03-15T20:38:08.721Z,11.20
2019-03-15T20:43:32.537Z,10.77
2019-03-15T20:48:57.431Z,7.10
2019-03-15T20:54:22.439Z,13.43
2019-03-15T20:59:46.923Z,10.70
2019-03-15T21:05:11.783Z,7.30
2019-03-15T21:11:09.732Z,9.60
2019-03-15T21:16:33.492Z,9.53
2019-03-15T21:21:57.594Z,12.90
2019-03-15T21:27:21.630Z,9.77
2019-03-15T21:32:46.538Z,17.63
2019-03-15T21:44:41.757Z,11.37
2019-03-15T21:50:07.886Z,13.13
2019-03-15T21:55:32.372Z,12.47
2019-03-15T22:01:02.708Z,13.90
2019-03-15T22:06:23.123Z,16.77
2019-03-15T22:11:47.230Z,18.70
2019-03-15T22:17:11.923Z,17.47
2019-03-15T22:22:36.736Z,11.37
2019-03-15T22:28:00.798Z,16.27
2019-03-15T22:33:25.063Z,9.77
2019-03-15T22:38:49.418Z,14.13
2019-03-15T22:44:14.214Z,18.07
2019-03-15T22:49:38.757Z,13.53
2019-03-15T22:55:02.425Z,15.80
2019-03-15T23:00:30.196Z,21.30
2019-03-15T23:05:55.627Z,13.53
2019-03-15T23:11:20.316Z,12.60
2019-03-15T23:16:44.840Z,20.73
2019-03-15T23:22:08.964Z,13.67
2019-03-15T23:27:33.520Z,14.47
2019-03-15T23:32:57.112Z,10.60
2019-03-15T23:38:21.774Z,14.63
2019-03-15T23:43:46.619Z,28.30
2019-03-15T23:49:10.871Z,11.80
2019-03-15T23:54:35.840Z,18.40
2019-03-15T23:59:59.518Z,16.03
